Wednesday, January 17, 2018, 7:19 PM EST
Back to Local

KFRG, Farmingdale Republic Airport

Location: Farmingdale, NY, United States Lat: 40.733
Local Time: 7:19 PM EST ( 0:19 GMT) Lon: -73.417
Time Zone: US/Eastern Elev: 82 ft

Show me the last for .
Show Decoded

2018-01-17 18:53 METAR KFRG 172353Z AUTO 33013KT 10SM OVC014 M02/M04 A3015 RMK AO2 SLP211 60000
                 T10171044 10017 21017 50003 =
2018-01-17 17:53 METAR KFRG 172253Z 31007KT 9SM OVC010 M01/M02 A3016 RMK AO2 SLP212 T10061022 =
2018-01-17 17:48 METAR KFRG 172248Z 31009KT 9SM OVC010 M01/M02 A3016 RMK AO2 =
2018-01-17 17:33 METAR KFRG 172233Z 30009KT 9SM OVC009 M01/M02 A3015 RMK AO2 T10061017 =
2018-01-17 17:19 METAR KFRG 172219Z 31010KT 10SM BKN010 OVC015 00/M02 A3014 RMK AO2 T00001017 =
2018-01-17 17:06 METAR KFRG 172206Z 32007KT 10SM BKN015 01/M01 A3014 RMK AO2 T00061011 =
2018-01-17 16:53 METAR KFRG 172153Z 33008KT 10SM FEW010 FEW017 01/M01 A3014 RMK AO2 SLP207
                 T00061011 =
2018-01-17 16:31 METAR KFRG 172131Z 33007KT 10SM SCT012 BKN041 01/M01 A3015 RMK AO2 T00061011 =
2018-01-17 16:23 METAR KFRG 172123Z 33007KT 10SM BKN012 BKN041 01/M01 A3016 RMK AO2 T00061011 =
2018-01-17 15:53 METAR KFRG 172053Z 32007KT 10SM FEW011 OVC040 01/M01 A3016 RMK AO2 SLP214 60000
                 T00061011 55007 =
2018-01-17 15:30 METAR KFRG 172030Z 33008KT 9SM SCT010 OVC036 01/M01 A3016 RMK AO2 T00111006 =
2018-01-17 15:22 METAR KFRG 172022Z 33007KT 10SM BKN010 OVC034 01/M01 A3016 RMK AO2 CIG 008V012
                 T00061011 =
2018-01-17 15:12 METAR KFRG 172012Z 33008KT 10SM SCT009 OVC033 01/M01 A3016 RMK AO2 T00061011 =
2018-01-17 14:53 METAR KFRG 171953Z 33008KT 9SM BKN009 OVC033 01/M01 A3015 RMK AO2 SNE17 SLP211
                 P0000 T00061006 =
2018-01-17 13:53 METAR KFRG 171853Z 33009KT 1SM -SN BR BKN006 OVC022 01/M01 A3016 RMK AO2 SFC VIS
                 1 1/4 UPE1755SNB1755 SLP213 P0000 T00061006 =
2018-01-17 12:53 METAR KFRG 171753Z 32006KT 1 3/4SM UP BR BKN006 OVC019 02/01 A3018 RMK AO2 SFC
                 VIS 4 UPB1659E03B17SNE1659B07E17B22E31 SLP221 P0000 60004 T00170006 10033 20017
                 58020 =
2018-01-17 12:11 METAR KFRG 171711Z 33007KT 1 3/4SM -SN BR BKN006 OVC019 02/01 A3020 RMK AO2 SFC
                 VIS 5 UPB1659E03SNE1659B07 P0000 T00170006 =
2018-01-17 12:04 METAR KFRG 171704Z 35006KT 1 3/4SM BR SCT006 SCT011 OVC019 02/01 A3019 RMK AO2
                 SFC VIS 6 UPB1659E03SNE1659 P0000 T00170006 =
2018-01-17 11:53 METAR KFRG 171653Z 33007KT 3SM -SN BR BKN006 OVC019 02/01 A3021 RMK AO2 SFC VIS
                 5 UPE20B46E50SNB20E46B50 SLP230 P0001 T00170006 =
2018-01-17 10:53 METAR KFRG 171553Z 33007KT 3SM UP BR OVC005 02/02 A3024 RMK AO2 SFC VIS 6 SLP239
                 P0000 T00220017 =
2018-01-17 10:02 METAR KFRG 171502Z 31004KT 3SM UP OVC006 03/02 A3024 RMK AO2 SFC VIS 8 CIG
                 004V007 P0000 T00280022 =
2018-01-17 09:53 METAR KFRG 171453Z 32004KT 3SM UP OVC004 03/02 A3024 RMK AO2 SFC VIS 7
                 RAE46UPB46 CIG 003V007 SLP241 P0002 60003 T00280022 51004 =
2018-01-17 08:53 METAR KFRG 171353Z 00000KT 1 3/4SM -RA BR OVC004 03/03 A3024 RMK AO2 SFC VIS 2
                 UPE13RAB13 SLP241 P0001 T00330033 =
2018-01-17 07:53 METAR KFRG 171253Z 03003KT 1 3/4SM UP BR OVC003 03/02 A3023 RMK AO2 SFC VIS 3
                 UPE23B31 SLP237 P0000 T00280022 =
2018-01-17 07:28 METAR KFRG 171228Z 04003KT 1 3/4SM BR OVC004 02/02 A3023 RMK AO2 SFC VIS 4 UPE23
                 P0000 T00220022 =
2018-01-17 07:21 METAR KFRG 171221Z 04003KT 2SM UP BR OVC004 02/02 A3023 RMK AO2 SFC VIS 4 P0000
                 T00220022 =
2018-01-17 06:53 METAR KFRG 171153Z AUTO 03004KT 4SM UP BR OVC005 02/02 A3024 RMK AO2 SLP240
                 P0000 60001 70001 T00220022 10033 20022 56006 =
2018-01-17 05:53 METAR KFRG 171053Z AUTO 01005KT 4SM UP BR OVC005 02/02 A3025 RMK AO2 UPB25
                 SLP243 P0000 T00220022 =
2018-01-17 04:53 METAR KFRG 170953Z AUTO 02006KT 5SM BR OVC006 02/02 A3024 RMK AO2 UPE33 SLP240
                 P0000 T00220017 =
2018-01-17 04:17 METAR KFRG 170917Z AUTO 02007KT 4SM UP BR OVC004 02/02 A3025 RMK AO2 P0000
                 T00220017 =
2018-01-17 03:53 METAR KFRG 170853Z AUTO 01005KT 6SM UP BR OVC005 02/02 A3026 RMK AO2
                 RAE16UPB02E05B16 SLP247 P0001 60001 T00220022 58010 =
2018-01-17 03:10 METAR KFRG 170810Z AUTO 02005KT 6SM -RA BR BKN008 OVC011 03/02 A3028 RMK AO2
                 UPB02E05 P0000 T00280022 =
2018-01-17 02:53 METAR KFRG 170753Z AUTO 02004KT 9SM -RA BKN011 BKN019 OVC032 03/02 A3028 RMK AO2
                 RAB52 SLP255 P0000 T00330022 =
2018-01-17 02:51 METAR KFRG 170751Z AUTO 02004KT 10SM BKN011 BKN019 OVC032 03/02 A3028 RMK AO2 =
2018-01-17 02:20 METAR KFRG 170720Z AUTO 04004KT 10SM SCT012 BKN026 OVC035 03/02 A3029 RMK AO2
                 T00280022 =
2018-01-17 01:53 METAR KFRG 170653Z AUTO 06003KT 10SM BKN013 OVC034 03/02 A3029 RMK AO2 SLP257
                 T00330022 =
2018-01-17 00:53 METAR KFRG 170553Z AUTO 05003KT 10SM OVC013 02/01 A3031 RMK AO2 SLP263 T00220011
                 10022 20000 58023 =
2018-01-17 00:42 METAR KFRG 170542Z AUTO 04004KT 10SM BKN013 02/01 A3031 RMK AO2 T00220011 =
2018-01-16 23:53 METAR KFRG 170453Z AUTO 08006KT 10SM BKN041 02/01 A3032 RMK AO2 SLP269 T00220006
                 400391056 =
2018-01-16 22:53 METAR KFRG 170353Z 07003KT 10SM SCT029 BKN037 02/00 A3036 RMK AO2 SLP281
                 T00170000 =
2018-01-16 21:53 METAR KFRG 170253Z 07003KT 10SM FEW029 FEW035 01/M01 A3037 RMK AO2 SLP286
                 T00061011 58012 =
2018-01-16 20:53 METAR KFRG 170153Z 05003KT 10SM SCT026 BKN034 01/M01 A3039 RMK AO2 SLP291
                 T00061011 =
2018-01-16 20:31 METAR KFRG 170131Z 05004KT 10SM BKN028 BKN035 00/M02 A3039 RMK AO2 T00001017 =
2018-01-16 19:53 METAR KFRG 170053Z 02005KT 10SM BKN031 00/M02 A3040 RMK AO2 SLP296 T00001022 =

Support USWX by starting your Amazon purchase here.